Time;durP1;ratioP1;P1;durP2;ratioP2;P2;SDS_P1;SDS_P2;PMS_P1;PMS_P2;Temp;Humidity;BMP_temperature;BMP_pressure;BME280_temperature;BME280_humidity;BME280_pressure;Samples;Min_cycle;Max_cycle;Signal;HPM_P1;HPM_P2
2021/10/24 00:00:32;;;;;;;12.50;5.10;;;;;;;4.66;76.46;101423.61;137620;1201;108315;-81
2021/10/24 00:03:50;;;;;;;10.80;5.00;;;;;;;4.63;76.50;101426.02;137625;1203;108420;-80
2021/10/24 00:06:55;;;;;;;14.30;5.00;;;;;;;4.56;76.45;101430.12;137594;1202;108502;-80
2021/10/24 00:10:00;;;;;;;13.30;5.80;;;;;;;4.49;76.47;101427.00;137568;1200;108574;-80
2021/10/24 00:13:06;;;;;;;10.40;4.20;;;;;;;4.45;76.64;101428.61;137595;1186;108676;-80
2021/10/24 00:16:11;;;;;;;9.40;4.40;;;;;;;4.45;76.44;101431.08;137542;1202;107469;-80
2021/10/24 00:19:17;;;;;;;10.50;4.70;;;;;;;4.43;76.54;101436.13;137533;1206;108220;-80
2021/10/24 00:22:22;;;;;;;9.20;4.90;;;;;;;4.40;76.56;101444.25;137530;1208;108302;-79
2021/10/24 00:25:28;;;;;;;10.20;5.40;;;;;;;4.36;76.36;101448.71;137640;1201;108560;-82
2021/10/24 00:28:33;;;;;;;7.80;4.80;;;;;;;4.29;76.45;101447.27;137588;1208;107533;-81
2021/10/24 00:31:39;;;;;;;10.80;4.80;;;;;;;4.23;76.29;101450.11;137625;1203;108514;-83
2021/10/24 00:34:44;;;;;;;11.90;5.20;;;;;;;4.13;76.08;101456.27;137601;1201;108475;-84
2021/10/24 00:37:50;;;;;;;11.20;4.90;;;;;;;4.02;76.21;101458.61;137847;1203;107811;-85
2021/10/24 00:40:55;;;;;;;8.50;4.20;;;;;;;3.97;76.39;101454.65;137734;1203;109028;-82
2021/10/24 00:44:17;;;;;;;9.10;4.50;;;;;;;3.95;76.23;101466.90;137694;1201;107240;-82
2021/10/24 00:47:23;;;;;;;8.50;4.50;;;;;;;3.91;76.16;101459.48;137646;1202;106869;-82
2021/10/24 00:50:29;;;;;;;9.00;4.50;;;;;;;3.90;75.99;101458.00;137761;1203;107526;-84
2021/10/24 00:53:35;;;;;;;7.20;4.10;;;;;;;3.86;75.84;101461.72;137704;1203;108521;-83
2021/10/24 00:56:42;;;;;;;7.70;4.40;;;;;;;3.80;75.82;101466.63;137704;1202;108489;-81
2021/10/24 00:59:48;;;;;;;8.60;4.60;;;;;;;3.72;75.64;101465.98;137575;1201;107473;-84
2021/10/24 01:02:53;;;;;;;10.10;4.60;;;;;;;3.66;75.71;101460.65;138234;1207;108502;-82
2021/10/24 01:06:01;;;;;;;6.70;4.20;;;;;;;3.60;75.66;101460.61;137983;1201;108507;-80
2021/10/24 01:09:08;;;;;;;9.90;4.40;;;;;;;3.52;75.56;101467.85;139279;1203;108526;-80
2021/10/24 01:12:15;;;;;;;9.30;3.80;;;;;;;3.45;75.59;101466.61;139697;1202;108870;-85
2021/10/24 01:15:23;;;;;;;8.60;4.40;;;;;;;3.44;75.45;101467.01;139406;1202;108432;-85
2021/10/24 01:18:29;;;;;;;7.90;4.10;;;;;;;3.43;75.25;101471.27;138288;1203;108298;-83
2021/10/24 01:21:35;;;;;;;8.80;4.10;;;;;;;3.41;75.26;101476.33;137609;1202;108693;-83
2021/10/24 01:24:41;;;;;;;8.50;4.60;;;;;;;3.35;75.36;101474.51;137614;1203;106762;-85
2021/10/24 01:27:48;;;;;;;9.20;4.30;;;;;;;3.33;75.36;101476.21;138612;1203;107223;-80
2021/10/24 01:30:54;;;;;;;11.40;4.80;;;;;;;3.26;75.23;101482.54;137679;1203;108600;-82
2021/10/24 01:34:00;;;;;;;7.60;4.90;;;;;;;3.18;75.00;101480.14;137528;1202;107539;-83
2021/10/24 01:37:06;;;;;;;10.40;5.00;;;;;;;3.10;75.10;101472.96;137639;1202;108597;-84
2021/10/24 01:40:15;;;;;;;8.80;5.00;;;;;;;3.01;74.87;101480.21;137544;1203;108526;-82
2021/10/24 01:43:22;;;;;;;9.90;4.90;;;;;;;2.93;75.11;101483.23;137563;1203;108637;-83
2021/10/24 01:46:28;;;;;;;9.00;4.60;;;;;;;2.89;74.98;101485.20;137849;1203;107362;-84
2021/10/24 01:49:34;;;;;;;8.10;4.00;;;;;;;2.85;75.22;101483.78;137648;1202;107242;-85
2021/10/24 01:52:44;;;;;;;8.90;5.00;;;;;;;2.85;75.21;101489.94;137656;1203;107066;-84
2021/10/24 01:55:51;;;;;;;15.10;7.80;;;;;;;2.85;75.10;101494.36;137564;1202;108918;-84
2021/10/24 01:58:57;;;;;;;8.50;5.30;;;;;;;2.86;75.52;101490.80;138111;1202;108624;-88
2021/10/24 02:02:22;;;;;;;10.80;4.80;;;;;;;2.86;75.50;101499.95;137909;1202;107748;-84
2021/10/24 02:05:50;;;;;;;11.20;5.80;;;;;;;2.84;75.55;101494.56;137584;1203;108446;-84
2021/10/24 02:08:56;;;;;;;16.00;6.00;;;;;;;2.83;75.48;101494.27;137697;1201;108521;-83
2021/10/24 02:12:01;;;;;;;12.20;5.60;;;;;;;2.79;75.54;101485.15;137629;1203;108541;-85
2021/10/24 02:15:10;;;;;;;14.10;6.00;;;;;;;2.79;75.78;101489.02;137590;1203;108703;-83
2021/10/24 02:18:17;;;;;;;9.30;4.90;;;;;;;2.82;75.93;101494.30;137528;1202;108645;-84
2021/10/24 02:21:24;;;;;;;9.30;5.00;;;;;;;2.89;76.06;101492.06;139208;1202;108658;-81
2021/10/24 02:24:30;;;;;;;12.60;5.70;;;;;;;2.97;76.18;101491.33;139228;1207;108678;-81
2021/10/24 02:27:38;;;;;;;14.80;5.80;;;;;;;3.07;76.02;101482.58;138940;1202;108818;-80
2021/10/24 02:30:44;;;;;;;15.70;6.60;;;;;;;-23.09;60.70;81184.20;137639;1201;1002710;-80
2021/10/24 02:34:08;;;;;;;13.80;6.30;;;;;;;-128.00;-1.00;-1.00;134240;1201;1096665;-82
2021/10/24 02:37:28;;;;;;;16.80;7.40;;;;;;;-128.00;-1.00;-1.00;134091;1203;1095996;-81
2021/10/24 02:40:34;;;;;;;18.50;7.20;;;;;;;-128.00;-1.00;-1.00;134227;1203;1096441;-82
2021/10/24 02:43:40;;;;;;;12.80;6.10;;;;;;;-128.00;-1.00;-1.00;134405;1200;1096555;-79
2021/10/24 02:46:47;;;;;;;17.10;7.30;;;;;;;-128.00;-1.00;-1.00;134190;1202;1097131;-79
2021/10/24 02:49:52;;;;;;;14.60;6.90;;;;;;;-128.00;-1.00;-1.00;134213;1208;1095505;-78
2021/10/24 02:52:58;;;;;;;14.60;7.00;;;;;;;-128.00;-1.00;-1.00;134403;1202;1096747;-80
2021/10/24 02:56:03;;;;;;;16.70;7.40;;;;;;;-128.00;-1.00;-1.00;134433;1202;1096030;-80
2021/10/24 02:59:09;;;;;;;15.90;7.10;;;;;;;-128.00;-1.00;-1.00;134981;1208;1095667;-78
2021/10/24 03:02:16;;;;;;;15.70;7.30;;;;;;;-128.00;-1.00;-1.00;135390;1201;1096222;-78
2021/10/24 03:05:22;;;;;;;17.50;6.90;;;;;;;-128.00;-1.00;-1.00;134116;1203;1095866;-85
2021/10/24 03:08:29;;;;;;;16.50;7.70;;;;;;;-128.00;-1.00;-1.00;134187;1207;1096838;-85
2021/10/24 03:11:35;;;;;;;34.90;13.10;;;;;;;-128.00;-1.00;-1.00;134243;1202;1097229;-84
2021/10/24 03:14:41;;;;;;;38.40;13.40;;;;;;;-128.00;-1.00;-1.00;133912;1202;1098087;-83
2021/10/24 03:17:47;;;;;;;38.40;13.00;;;;;;;-128.00;-1.00;-1.00;133952;1203;1096373;-84
2021/10/24 03:20:52;;;;;;;48.10;14.80;;;;;;;-128.00;-1.00;-1.00;133948;1203;1096838;-80
2021/10/24 03:23:58;;;;;;;177.00;35.10;;;;;;;-128.00;-1.00;-1.00;134170;1202;1095913;-81
2021/10/24 03:27:03;;;;;;;99.00;23.30;;;;;;;-128.00;-1.00;-1.00;134582;1194;1096041;-81
2021/10/24 03:30:10;;;;;;;39.10;11.30;;;;;;;-128.00;-1.00;-1.00;135522;1202;1096639;-81
2021/10/24 03:33:16;;;;;;;23.40;8.50;;;;;;;-128.00;-1.00;-1.00;135029;1206;1097199;-79
2021/10/24 03:36:22;;;;;;;25.50;9.50;;;;;;;-128.00;-1.00;-1.00;133803;1202;1097757;-77
2021/10/24 03:39:28;;;;;;;24.30;9.30;;;;;;;-128.00;-1.00;-1.00;133640;1203;1096752;-77
2021/10/24 03:42:34;;;;;;;26.40;8.30;;;;;;;-128.00;-1.00;-1.00;133692;1202;1096251;-79
2021/10/24 03:45:39;;;;;;;39.20;12.20;;;;;;;-128.00;-1.00;-1.00;133982;1203;1096050;-80
2021/10/24 03:48:45;;;;;;;36.20;11.70;;;;;;;-128.00;-1.00;-1.00;134279;1202;1096451;-85
2021/10/24 03:51:50;;;;;;;57.00;16.40;;;;;;;-128.00;-1.00;-1.00;133857;1203;1096019;-81
2021/10/24 03:54:56;;;;;;;36.90;12.40;;;;;;;-128.00;-1.00;-1.00;133704;1202;1097330;-82
2021/10/24 03:58:01;;;;;;;24.80;8.90;;;;;;;-128.00;-1.00;-1.00;133733;1201;1096246;-81
2021/10/24 04:01:07;;;;;;;19.80;8.10;;;;;;;-128.00;-1.00;-1.00;133748;1203;1097016;-79
2021/10/24 04:04:13;;;;;;;21.00;7.60;;;;;;;-128.00;-1.00;-1.00;133650;1202;1096779;-76
2021/10/24 04:07:19;;;;;;;19.10;7.00;;;;;;;-128.00;-1.00;-1.00;133677;1202;1093678;-80
2021/10/24 04:10:28;;;;;;;21.60;8.60;;;;;;;-128.00;-1.00;-1.00;133775;1203;1097471;-76
2021/10/24 04:13:35;;;;;;;28.20;12.20;;;;;;;-128.00;-1.00;-1.00;133922;1202;1096244;-80
2021/10/24 04:16:41;;;;;;;24.70;9.60;;;;;;;-128.00;-1.00;-1.00;134342;1202;1093810;-80
2021/10/24 04:20:02;;;;;;;17.30;8.00;;;;;;;-128.00;-1.00;-1.00;133671;1202;1094639;-80
2021/10/24 04:23:10;;;;;;;17.20;7.60;;;;;;;-128.00;-1.00;-1.00;133770;1202;1096790;-79
2021/10/24 04:26:15;;;;;;;20.70;8.20;;;;;;;-128.00;-1.00;-1.00;133922;1203;1096209;-78
2021/10/24 04:29:21;;;;;;;15.70;7.70;;;;;;;-128.00;-1.00;-1.00;133745;1201;1095648;-80
2021/10/24 04:32:26;;;;;;;16.50;7.60;;;;;;;-128.00;-1.00;-1.00;133881;1201;1096255;-84
2021/10/24 04:35:32;;;;;;;13.70;6.40;;;;;;;-128.00;-1.00;-1.00;133703;1203;1097127;-83
2021/10/24 04:38:38;;;;;;;14.70;7.00;;;;;;;-128.00;-1.00;-1.00;134417;1202;1094459;-82
2021/10/24 04:41:43;;;;;;;26.80;14.80;;;;;;;-128.00;-1.00;-1.00;134056;1202;1096580;-80
2021/10/24 04:44:49;;;;;;;408.90;198.80;;;;;;;-128.00;-1.00;-1.00;133663;1203;1096770;-78
2021/10/24 04:47:57;;;;;;;336.50;134.70;;;;;;;-128.00;-1.00;-1.00;133816;1203;1097394;-80
2021/10/24 04:51:03;;;;;;;424.40;205.00;;;;;;;-128.00;-1.00;-1.00;133712;1202;1095893;-79
2021/10/24 04:54:09;;;;;;;256.60;115.10;;;;;;;-128.00;-1.00;-1.00;133651;1203;1095567;-75
2021/10/24 04:57:15;;;;;;;356.80;156.50;;;;;;;-128.00;-1.00;-1.00;133699;1203;1096610;-79
2021/10/24 05:00:21;;;;;;;398.80;174.00;;;;;;;-128.00;-1.00;-1.00;133687;1203;1096937;-76
2021/10/24 05:03:26;;;;;;;570.30;248.90;;;;;;;-128.00;-1.00;-1.00;133633;1203;1096810;-77
2021/10/24 05:06:32;;;;;;;633.40;271.00;;;;;;;-128.00;-1.00;-1.00;133695;1202;1096114;-76
2021/10/24 05:09:37;;;;;;;774.50;236.70;;;;;;;-128.00;-1.00;-1.00;133665;1206;1096145;-76
2021/10/24 05:12:42;;;;;;;832.50;278.20;;;;;;;-128.00;-1.00;-1.00;133595;1208;1096942;-76
2021/10/24 05:15:48;;;;;;;553.20;214.70;;;;;;;-128.00;-1.00;-1.00;133643;1203;1097006;-76
2021/10/24 05:18:55;;;;;;;704.30;320.40;;;;;;;-128.00;-1.00;-1.00;133610;1203;1095802;-75
2021/10/24 05:22:00;;;;;;;523.80;287.10;;;;;;;-128.00;-1.00;-1.00;133655;1203;1096346;-75
2021/10/24 05:25:07;;;;;;;158.40;83.70;;;;;;;-128.00;-1.00;-1.00;133963;1194;1096578;-78
2021/10/24 05:28:15;;;;;;;60.30;32.60;;;;;;;-128.00;-1.00;-1.00;133884;1202;1096913;-82
2021/10/24 05:31:21;;;;;;;33.80;19.00;;;;;;;-128.00;-1.00;-1.00;134266;1201;1096815;-80
2021/10/24 05:34:47;;;;;;;74.50;53.30;;;;;;;-128.00;-1.00;-1.00;133777;1202;1095618;-78
2021/10/24 05:37:57;;;;;;;517.50;172.80;;;;;;;-128.00;-1.00;-1.00;133829;1202;1096878;-80
2021/10/24 05:41:02;;;;;;;628.60;305.30;;;;;;;-128.00;-1.00;-1.00;133613;1203;1095689;-76
2021/10/24 05:44:08;;;;;;;375.00;145.30;;;;;;;-128.00;-1.00;-1.00;133643;1200;1093799;-76
2021/10/24 05:47:14;;;;;;;189.50;88.10;;;;;;;-128.00;-1.00;-1.00;133738;1203;1096525;-75
2021/10/24 05:50:20;;;;;;;38.70;20.40;;;;;;;-128.00;-1.00;-1.00;133718;1206;1096832;-78
2021/10/24 05:53:26;;;;;;;28.90;13.50;;;;;;;-128.00;-1.00;-1.00;133973;1202;1096913;-78
2021/10/24 05:56:32;;;;;;;23.50;11.50;;;;;;;-128.00;-1.00;-1.00;133849;1206;1097464;-78
2021/10/24 05:59:40;;;;;;;20.10;10.50;;;;;;;-128.00;-1.00;-1.00;133638;1201;1097131;-79
2021/10/24 06:02:53;;;;;;;17.80;8.00;;;;;;;-128.00;-1.00;-1.00;133717;1202;1093664;-80
2021/10/24 06:06:17;;;;;;;22.90;11.70;;;;;;;-128.00;-1.00;-1.00;133741;1202;1096873;-78
2021/10/24 06:09:30;;;;;;;214.80;137.30;;;;;;;-128.00;-1.00;-1.00;133981;1203;1096364;-75
2021/10/24 06:12:42;;;;;;;28.10;14.90;;;;;;;-128.00;-1.00;-1.00;133622;1202;1097018;-78
2021/10/24 06:15:48;;;;;;;22.60;11.80;;;;;;;-128.00;-1.00;-1.00;133694;1202;1098126;-75
2021/10/24 06:18:53;;;;;;;20.00;10.30;;;;;;;-128.00;-1.00;-1.00;133693;1203;1094647;-77
2021/10/24 06:22:00;;;;;;;20.70;10.00;;;;;;;-128.00;-1.00;-1.00;133654;1203;1097430;-85
2021/10/24 06:25:08;;;;;;;26.80;14.30;;;;;;;-128.00;-1.00;-1.00;134105;1201;1097310;-79
2021/10/24 06:28:16;;;;;;;19.80;10.00;;;;;;;-128.00;-1.00;-1.00;133651;1204;1095964;-76
2021/10/24 06:31:22;;;;;;;18.30;8.80;;;;;;;-128.00;-1.00;-1.00;133601;1202;1095972;-75
2021/10/24 06:34:46;;;;;;;30.50;13.30;;;;;;;-128.00;-1.00;-1.00;133628;1203;1096068;-77
2021/10/24 06:38:06;;;;;;;31.70;17.60;;;;;;;-128.00;-1.00;-1.00;133669;1202;1097154;-76
2021/10/24 06:41:15;;;;;;;95.80;42.30;;;;;;;-128.00;-1.00;-1.00;133734;1202;1094792;-79
2021/10/24 06:44:29;;;;;;;29.90;12.60;;;;;;;-128.00;-1.00;-1.00;133783;1202;1096653;-77
2021/10/24 06:48:09;;;;;;;37.90;23.40;;;;;;;-128.00;-1.00;-1.00;133601;1202;1095565;-76
2021/10/24 06:51:35;;;;;;;34.90;17.60;;;;;;;-128.00;-1.00;-1.00;133713;1203;1096143;-76
2021/10/24 06:54:59;;;;;;;37.60;20.10;;;;;;;-128.00;-1.00;-1.00;133751;1202;1096063;-81
2021/10/24 06:58:23;;;;;;;27.10;11.90;;;;;;;-128.00;-1.00;-1.00;133650;1203;1097459;-75
2021/10/24 07:01:48;;;;;;;29.50;15.30;;;;;;;-128.00;-1.00;-1.00;133645;1203;1095888;-77
2021/10/24 07:05:12;;;;;;;28.30;13.70;;;;;;;-128.00;-1.00;-1.00;133657;1202;1095340;-77
2021/10/24 07:08:21;;;;;;;26.00;13.90;;;;;;;-128.00;-1.00;-1.00;133686;1203;1095012;-77
2021/10/24 07:11:26;;;;;;;23.50;10.10;;;;;;;-128.00;-1.00;-1.00;133680;1203;1093088;-78
2021/10/24 07:14:32;;;;;;;24.30;9.70;;;;;;;-128.00;-1.00;-1.00;133705;1203;1097441;-80
2021/10/24 07:17:39;;;;;;;23.80;11.80;;;;;;;-128.00;-1.00;-1.00;133710;1200;1096839;-79
2021/10/24 07:20:44;;;;;;;20.80;11.00;;;;;;;-128.00;-1.00;-1.00;133808;1200;1093120;-73
2021/10/24 07:23:50;;;;;;;27.10;12.20;;;;;;;-128.00;-1.00;-1.00;133720;1203;1096662;-77
2021/10/24 07:26:59;;;;;;;22.50;12.30;;;;;;;-128.00;-1.00;-1.00;133648;1206;1096920;-76
2021/10/24 07:30:06;;;;;;;19.40;9.80;;;;;;;-128.00;-1.00;-1.00;133892;1208;1094684;-80
2021/10/24 07:33:18;;;;;;;38.10;24.60;;;;;;;-128.00;-1.00;-1.00;133859;1200;1094911;-77
2021/10/24 07:36:45;;;;;;;120.10;68.90;;;;;;;-128.00;-1.00;-1.00;133736;1200;1095785;-77
2021/10/24 07:39:51;;;;;;;30.00;14.50;;;;;;;-128.00;-1.00;-1.00;133807;1201;1096954;-76
2021/10/24 07:42:56;;;;;;;25.00;13.10;;;;;;;-128.00;-1.00;-1.00;133734;1202;1096836;-80
2021/10/24 07:46:02;;;;;;;25.00;13.50;;;;;;;-128.00;-1.00;-1.00;133746;1203;1095732;-81
2021/10/24 07:49:07;;;;;;;23.10;11.00;;;;;;;-128.00;-1.00;-1.00;133770;1202;1096242;-82
2021/10/24 07:52:13;;;;;;;23.60;11.10;;;;;;;-128.00;-1.00;-1.00;133884;1202;1097984;-83
2021/10/24 07:55:20;;;;;;;61.90;44.00;;;;;;;-128.00;-1.00;-1.00;133874;1203;1096252;-82
2021/10/24 07:58:27;;;;;;;23.50;13.20;;;;;;;-128.00;-1.00;-1.00;133912;1203;1093696;-83
2021/10/24 08:01:34;;;;;;;32.00;20.30;;;;;;;-128.00;-1.00;-1.00;133843;1203;1094702;-81
2021/10/24 08:04:40;;;;;;;23.10;13.40;;;;;;;-128.00;-1.00;-1.00;133848;1203;1096053;-84
2021/10/24 08:07:46;;;;;;;25.00;16.40;;;;;;;-128.00;-1.00;-1.00;134008;1203;1094731;-83
2021/10/24 08:11:22;;;;;;;24.80;13.10;;;;;;;-128.00;-1.00;-1.00;133912;1201;1097138;-84
2021/10/24 08:14:39;;;;;;;24.00;13.40;;;;;;;-128.00;-1.00;-1.00;133848;1208;1096130;-84
2021/10/24 08:17:47;;;;;;;22.30;13.00;;;;;;;-128.00;-1.00;-1.00;134118;1201;1096036;-88
2021/10/24 08:21:12;;;;;;;21.80;11.30;;;;;;;-128.00;-1.00;-1.00;133789;1202;1096163;-78
2021/10/24 08:24:21;;;;;;;44.80;26.30;;;;;;;-128.00;-1.00;-1.00;133931;1203;1095695;-82
2021/10/24 08:27:46;;;;;;;23.20;12.60;;;;;;;-128.00;-1.00;-1.00;133846;1202;1097701;-86
2021/10/24 08:31:11;;;;;;;21.90;12.50;;;;;;;-128.00;-1.00;-1.00;134119;1202;1097936;-79
2021/10/24 08:34:20;;;;;;;20.10;12.00;;;;;;;-128.00;-1.00;-1.00;133892;1203;1094402;-80
2021/10/24 08:37:26;;;;;;;20.80;11.40;;;;;;;-128.00;-1.00;-1.00;133790;1202;1094259;-75
2021/10/24 08:40:31;;;;;;;20.60;12.20;;;;;;;-128.00;-1.00;-1.00;133742;1202;1097047;-78
2021/10/24 08:43:38;;;;;;;20.00;10.50;;;;;;;-128.00;-1.00;-1.00;133856;1208;1097167;-77
2021/10/24 08:46:43;;;;;;;16.30;9.40;;;;;;;-128.00;-1.00;-1.00;133917;1203;1095948;-77
2021/10/24 08:49:49;;;;;;;20.40;10.40;;;;;;;-128.00;-1.00;-1.00;133863;1203;1097512;-78
2021/10/24 08:52:56;;;;;;;22.40;10.20;;;;;;;-128.00;-1.00;-1.00;133850;1208;1097180;-75
2021/10/24 08:56:01;;;;;;;19.80;10.10;;;;;;;-128.00;-1.00;-1.00;133641;1205;1097210;-78
2021/10/24 08:59:07;;;;;;;19.90;10.10;;;;;;;-128.00;-1.00;-1.00;133708;1203;1097370;-75
2021/10/24 09:02:12;;;;;;;21.90;10.70;;;;;;;-128.00;-1.00;-1.00;133647;1203;1096209;-76
2021/10/24 09:05:36;;;;;;;19.00;10.80;;;;;;;-128.00;-1.00;-1.00;133874;1203;1096936;-75
2021/10/24 09:08:42;;;;;;;16.90;9.20;;;;;;;-128.00;-1.00;-1.00;133657;1203;1097127;-77
2021/10/24 09:11:58;;;;;;;18.00;10.30;;;;;;;-128.00;-1.00;-1.00;133626;1203;1097154;-78
2021/10/24 09:15:05;;;;;;;18.90;10.30;;;;;;;-128.00;-1.00;-1.00;133654;1203;1093129;-73
2021/10/24 09:18:11;;;;;;;19.30;11.30;;;;;;;-128.00;-1.00;-1.00;133680;1203;1096288;-72
2021/10/24 09:21:24;;;;;;;17.70;10.20;;;;;;;-128.00;-1.00;-1.00;133631;1201;1096895;-73
2021/10/24 09:24:30;;;;;;;18.00;10.50;;;;;;;-128.00;-1.00;-1.00;133608;1203;1096364;-71
2021/10/24 09:27:43;;;;;;;17.60;11.00;;;;;;;-128.00;-1.00;-1.00;133623;1203;1095010;-74
2021/10/24 09:30:59;;;;;;;20.90;11.70;;;;;;;-128.00;-1.00;-1.00;133644;1208;1097103;-77
2021/10/24 09:34:25;;;;;;;18.30;11.20;;;;;;;-128.00;-1.00;-1.00;133657;1202;1095698;-78
2021/10/24 09:37:54;;;;;;;13.60;9.30;;;;;;;-128.00;-1.00;-1.00;133602;1203;1096585;-78
2021/10/24 09:41:33;;;;;;;17.50;10.90;;;;;;;-128.00;-1.00;-1.00;133836;1208;1097069;-79
2021/10/24 09:44:58;;;;;;;17.80;10.60;;;;;;;-128.00;-1.00;-1.00;133869;1200;1094067;-80
2021/10/24 09:48:11;;;;;;;17.40;10.80;;;;;;;-128.00;-1.00;-1.00;134237;1200;1097059;-78
2021/10/24 09:51:36;;;;;;;18.30;11.40;;;;;;;-128.00;-1.00;-1.00;133914;1200;1096180;-81
2021/10/24 09:54:50;;;;;;;16.60;10.70;;;;;;;-128.00;-1.00;-1.00;133840;1208;1094320;-78
2021/10/24 09:57:56;;;;;;;17.70;10.20;;;;;;;-128.00;-1.00;-1.00;133694;1202;1094092;-77
2021/10/24 10:01:02;;;;;;;17.00;11.60;;;;;;;-128.00;-1.00;-1.00;133654;1200;1097557;-77
2021/10/24 10:04:08;;;;;;;17.90;11.70;;;;;;;-128.00;-1.00;-1.00;133740;1200;1096302;-77
2021/10/24 10:07:14;;;;;;;18.00;11.30;;;;;;;-128.00;-1.00;-1.00;133803;1200;1095445;-81
2021/10/24 10:10:20;;;;;;;17.70;10.90;;;;;;;-128.00;-1.00;-1.00;134111;1200;1096621;-81
2021/10/24 10:13:28;;;;;;;17.90;11.00;;;;;;;-128.00;-1.00;-1.00;134505;1200;1096188;-79
2021/10/24 10:16:39;;;;;;;14.30;8.70;;;;;;;-128.00;-1.00;-1.00;135087;1200;1096003;-80
2021/10/24 10:19:46;;;;;;;18.40;10.60;;;;;;;-128.00;-1.00;-1.00;134498;1200;1094210;-81
2021/10/24 10:23:07;;;;;;;19.80;11.40;;;;;;;-128.00;-1.00;-1.00;134151;1202;1093644;-82
2021/10/24 10:26:32;;;;;;;19.90;12.10;;;;;;;-128.00;-1.00;-1.00;133757;1200;1096535;-78
2021/10/24 10:29:52;;;;;;;18.00;11.30;;;;;;;-128.00;-1.00;-1.00;133674;1200;1095048;-81
2021/10/24 10:32:57;;;;;;;17.20;10.40;;;;;;;-128.00;-1.00;-1.00;133930;1200;1095709;-80
2021/10/24 10:36:06;;;;;;;17.40;10.80;;;;;;;-128.00;-1.00;-1.00;133839;1200;1096872;-78
2021/10/24 10:39:47;;;;;;;14.80;8.30;;;;;;;-128.00;-1.00;-1.00;133957;1200;1094046;-79
2021/10/24 10:43:07;;;;;;;12.30;8.30;;;;;;;-128.00;-1.00;-1.00;133833;1200;1095875;-81
2021/10/24 10:46:27;;;;;;;12.60;8.20;;;;;;;-128.00;-1.00;-1.00;133736;1201;1097350;-80
2021/10/24 10:49:34;;;;;;;14.90;8.50;;;;;;;-128.00;-1.00;-1.00;133890;1200;1096661;-79
2021/10/24 10:52:43;;;;;;;14.40;8.60;;;;;;;-128.00;-1.00;-1.00;133800;1200;1096220;-77
2021/10/24 10:56:19;;;;;;;17.70;9.60;;;;;;;-128.00;-1.00;-1.00;133990;1200;1096858;-76
2021/10/24 10:59:38;;;;;;;13.30;7.70;;;;;;;-128.00;-1.00;-1.00;133894;1207;1097228;-76
2021/10/24 11:02:49;;;;;;;12.10;7.80;;;;;;;-128.00;-1.00;-1.00;133962;1208;1097385;-76
2021/10/24 11:05:54;;;;;;;13.70;8.30;;;;;;;-128.00;-1.00;-1.00;133659;1203;1096956;-83
2021/10/24 11:09:02;;;;;;;21.30;11.90;;;;;;;-128.00;-1.00;-1.00;133706;1201;1097263;-78
2021/10/24 11:12:09;;;;;;;17.70;11.30;;;;;;;-128.00;-1.00;-1.00;133755;1202;1093736;-76
2021/10/24 11:15:18;;;;;;;16.20;10.20;;;;;;;-128.00;-1.00;-1.00;133634;1203;1097338;-73
2021/10/24 11:18:32;;;;;;;21.00;12.40;;;;;;;-128.00;-1.00;-1.00;133670;1203;1093453;-81
2021/10/24 11:21:39;;;;;;;22.20;12.60;;;;;;;-128.00;-1.00;-1.00;133815;1202;1095917;-77
2021/10/24 11:24:47;;;;;;;23.70;13.80;;;;;;;-128.00;-1.00;-1.00;133731;1203;1094490;-79
2021/10/24 11:27:53;;;;;;;19.80;12.40;;;;;;;-128.00;-1.00;-1.00;133655;1203;1095247;-77
2021/10/24 11:31:07;;;;;;;24.00;16.00;;;;;;;-128.00;-1.00;-1.00;133775;1193;1096246;-79
2021/10/24 11:34:30;;;;;;;32.50;19.90;;;;;;;-128.00;-1.00;-1.00;133763;1203;1094540;-77
2021/10/24 11:37:37;;;;;;;27.00;16.60;;;;;;;-128.00;-1.00;-1.00;133633;1201;1097361;-77
2021/10/24 11:40:46;;;;;;;22.40;13.50;;;;;;;-128.00;-1.00;-1.00;133715;1203;1096187;-81
2021/10/24 11:43:52;;;;;;;21.70;13.40;;;;;;;-128.00;-1.00;-1.00;133776;1201;1094616;-75
2021/10/24 11:47:09;;;;;;;20.00;12.00;;;;;;;-128.00;-1.00;-1.00;133920;1208;1094707;-76
2021/10/24 11:50:14;;;;;;;30.00;17.80;;;;;;;-128.00;-1.00;-1.00;133776;1200;1094520;-75
2021/10/24 11:53:29;;;;;;;28.90;16.40;;;;;;;-128.00;-1.00;-1.00;133785;1203;1094323;-82
2021/10/24 11:57:13;;;;;;;21.30;13.10;;;;;;;-128.00;-1.00;-1.00;133727;1203;1097016;-76
2021/10/24 12:00:21;;;;;;;22.60;13.50;;;;;;;-128.00;-1.00;-1.00;133783;1202;1093728;-76
2021/10/24 12:03:30;;;;;;;21.00;13.30;;;;;;;-128.00;-1.00;-1.00;133781;1202;1095160;-81
2021/10/24 12:06:52;;;;;;;20.30;13.20;;;;;;;-128.00;-1.00;-1.00;133814;1203;1094009;-74
2021/10/24 12:09:58;;;;;;;18.90;12.60;;;;;;;-128.00;-1.00;-1.00;133852;1201;1094564;-77
2021/10/24 12:13:04;;;;;;;18.90;12.10;;;;;;;-128.00;-1.00;-1.00;133648;1203;1096587;-80
2021/10/24 12:16:31;;;;;;;24.10;13.20;;;;;;;-128.00;-1.00;-1.00;133672;1203;1096404;-78
2021/10/24 12:19:36;;;;;;;25.80;16.10;;;;;;;-128.00;-1.00;-1.00;133793;1203;1093721;-76
2021/10/24 12:22:44;;;;;;;19.80;12.90;;;;;;;-128.00;-1.00;-1.00;133666;1201;1096839;-75
2021/10/24 12:25:52;;;;;;;25.70;15.90;;;;;;;-128.00;-1.00;-1.00;133709;1202;1096294;-80
2021/10/24 12:28:57;;;;;;;26.80;15.80;;;;;;;-128.00;-1.00;-1.00;133765;1203;1096947;-78
2021/10/24 12:32:12;;;;;;;20.90;12.20;;;;;;;-128.00;-1.00;-1.00;133784;1202;1095980;-77
2021/10/24 12:35:18;;;;;;;15.70;10.20;;;;;;;-128.00;-1.00;-1.00;133663;1203;1097035;-81
2021/10/24 12:38:24;;;;;;;20.40;12.60;;;;;;;-128.00;-1.00;-1.00;133710;1203;1095605;-79
2021/10/24 12:41:37;;;;;;;23.80;14.70;;;;;;;-128.00;-1.00;-1.00;133691;1203;1094313;-78
2021/10/24 12:44:42;;;;;;;21.60;13.50;;;;;;;-128.00;-1.00;-1.00;133688;1201;1094055;-77
2021/10/24 12:47:59;;;;;;;22.20;13.90;;;;;;;-128.00;-1.00;-1.00;133734;1208;1096448;-78
2021/10/24 12:51:22;;;;;;;21.00;13.10;;;;;;;-128.00;-1.00;-1.00;133726;1202;1096622;-78
2021/10/24 12:54:32;;;;;;;22.20;14.20;;;;;;;-128.00;-1.00;-1.00;133696;1203;1094348;-78
2021/10/24 12:57:38;;;;;;;20.20;13.00;;;;;;;-128.00;-1.00;-1.00;134167;1201;1094044;-74
2021/10/24 13:00:43;;;;;;;19.40;13.10;;;;;;;-128.00;-1.00;-1.00;133710;1206;1095925;-75
2021/10/24 13:03:49;;;;;;;20.10;13.10;;;;;;;-128.00;-1.00;-1.00;133655;1206;1096074;-72
2021/10/24 13:06:54;;;;;;;21.70;14.20;;;;;;;-128.00;-1.00;-1.00;133757;1203;1096993;-76
2021/10/24 13:09:59;;;;;;;23.00;14.10;;;;;;;-128.00;-1.00;-1.00;133740;1202;1096457;-77
2021/10/24 13:13:05;;;;;;;32.90;20.40;;;;;;;-128.00;-1.00;-1.00;133672;1206;1095810;-77
2021/10/24 13:16:10;;;;;;;55.60;31.20;;;;;;;-128.00;-1.00;-1.00;133816;1203;1096920;-81
2021/10/24 13:19:16;;;;;;;24.20;14.40;;;;;;;-128.00;-1.00;-1.00;133871;1201;1096455;-76
2021/10/24 13:25:44;;;;;;;24.00;15.40;;;;;;;-128.00;-1.00;-1.00;133952;1208;1097039;-78
2021/10/24 13:28:50;;;;;;;37.10;25.00;;;;;;;-128.00;-1.00;-1.00;133880;1202;1097893;-78
2021/10/24 13:31:55;;;;;;;27.40;16.60;;;;;;;-128.00;-1.00;-1.00;133763;1203;1096764;-75
2021/10/24 13:35:02;;;;;;;23.80;14.40;;;;;;;-128.00;-1.00;-1.00;133634;1203;1096901;-75
2021/10/24 13:38:08;;;;;;;21.80;13.20;;;;;;;-128.00;-1.00;-1.00;133717;1203;1096474;-75
2021/10/24 13:41:13;;;;;;;19.30;13.30;;;;;;;-128.00;-1.00;-1.00;133704;1203;1095862;-75
2021/10/24 13:44:19;;;;;;;20.80;13.20;;;;;;;-128.00;-1.00;-1.00;133806;1206;1096238;-76
2021/10/24 13:47:24;;;;;;;19.30;11.90;;;;;;;-128.00;-1.00;-1.00;133718;1203;1097181;-73
2021/10/24 13:50:30;;;;;;;21.40;12.60;;;;;;;-128.00;-1.00;-1.00;133682;1203;1096723;-74
2021/10/24 13:53:35;;;;;;;20.80;12.90;;;;;;;-128.00;-1.00;-1.00;133618;1202;1097096;-75
2021/10/24 13:56:41;;;;;;;19.10;12.10;;;;;;;-128.00;-1.00;-1.00;133654;1202;1096561;-75
2021/10/24 13:59:49;;;;;;;19.10;12.70;;;;;;;-128.00;-1.00;-1.00;133721;1203;1096652;-75
2021/10/24 14:02:56;;;;;;;18.80;11.90;;;;;;;-128.00;-1.00;-1.00;133825;1206;1096516;-75
2021/10/24 14:06:01;;;;;;;16.40;10.80;;;;;;;-128.00;-1.00;-1.00;133654;1201;1097749;-75
2021/10/24 14:09:07;;;;;;;15.70;11.00;;;;;;;-128.00;-1.00;-1.00;133615;1203;1096517;-78
2021/10/24 14:12:12;;;;;;;19.10;11.10;;;;;;;-128.00;-1.00;-1.00;133756;1200;1095527;-75
2021/10/24 14:15:18;;;;;;;21.50;12.90;;;;;;;-128.00;-1.00;-1.00;133641;1203;1094277;-77
2021/10/24 14:18:24;;;;;;;20.10;12.10;;;;;;;-128.00;-1.00;-1.00;133722;1203;1097434;-76